createdAt,value
2019-05-02T00:01:32.082Z,37.28
2019-05-02T00:04:05.757Z,37.30
2019-05-02T00:06:38.002Z,37.93
2019-05-02T00:09:11.190Z,40.10
2019-05-02T00:11:41.458Z,34.38
2019-05-02T00:14:12.187Z,38.98
2019-05-02T00:16:45.100Z,38.33
2019-05-02T00:19:15.369Z,35.80
2019-05-02T00:21:45.680Z,30.77
2019-05-02T00:24:15.818Z,35.90
2019-05-02T00:26:45.986Z,37.58
2019-05-02T00:29:18.902Z,35.35
2019-05-02T00:31:48.868Z,34.10
2019-05-02T00:34:19.061Z,33.67
2019-05-02T00:36:49.165Z,34.85
2019-05-02T00:39:19.425Z,39.20
2019-05-02T00:41:49.551Z,36.00
2019-05-02T00:44:19.665Z,38.95
2019-05-02T00:46:49.861Z,36.15
2019-05-02T00:49:19.989Z,33.53
2019-05-02T00:51:50.164Z,32.40
2019-05-02T00:54:24.353Z,31.10
2019-05-02T00:56:52.137Z,30.08
2019-05-02T00:59:22.263Z,30.20
2019-05-02T01:01:59.952Z,31.00
2019-05-02T01:04:33.174Z,27.48
2019-05-02T01:07:04.307Z,30.70
2019-05-02T01:09:37.536Z,29.10
2019-05-02T01:12:08.413Z,31.15
2019-05-02T01:14:39.443Z,29.37
2019-05-02T01:17:09.773Z,27.45
2019-05-02T01:19:39.989Z,25.75
2019-05-02T01:22:10.557Z,27.82
2019-05-02T01:24:42.027Z,29.35
2019-05-02T01:27:21.911Z,28.20
2019-05-02T01:30:11.103Z,25.45
2019-05-02T01:33:10.106Z,28.80
2019-05-02T01:35:46.336Z,26.68
2019-05-02T01:38:31.645Z,28.02
2019-05-02T01:40:58.455Z,29.52
2019-05-02T01:43:30.382Z,25.02
2019-05-02T01:46:00.505Z,26.52
2019-05-02T01:48:30.571Z,24.95
2019-05-02T01:51:04.651Z,28.75
2019-05-02T01:53:34.428Z,26.30
2019-05-02T01:56:04.874Z,21.50
2019-05-02T01:58:35.081Z,23.73
2019-05-02T02:01:05.625Z,26.85
2019-05-02T02:03:40.573Z,23.07
2019-05-02T02:06:10.065Z,23.32
2019-05-02T02:08:40.182Z,22.22
2019-05-02T02:11:10.325Z,29.50
2019-05-02T02:13:40.443Z,23.62
2019-05-02T02:16:10.543Z,21.90
2019-05-02T02:18:46.446Z,24.40
2019-05-02T02:21:27.697Z,27.48
2019-05-02T02:24:05.483Z,22.58
2019-05-02T02:26:35.630Z,26.20
2019-05-02T02:29:07.811Z,23.40
2019-05-02T02:31:39.779Z,27.48
2019-05-02T02:34:10.601Z,23.85
2019-05-02T02:36:40.714Z,23.30
2019-05-02T02:39:14.000Z,25.57
2019-05-02T02:41:45.364Z,26.07
2019-05-02T02:44:33.859Z,26.80
2019-05-02T02:47:11.943Z,28.27
2019-05-02T02:49:37.647Z,27.73
2019-05-02T02:52:09.580Z,26.37
2019-05-02T02:54:43.365Z,26.93
2019-05-02T02:57:26.013Z,28.07
2019-05-02T02:59:47.363Z,25.43
2019-05-02T03:02:17.480Z,27.70
2019-05-02T03:04:47.775Z,28.75
2019-05-02T03:07:25.490Z,28.67
2019-05-02T03:09:49.720Z,27.75
2019-05-02T03:12:47.832Z,27.35
2019-05-02T03:15:27.727Z,28.17
2019-05-02T03:17:52.567Z,26.93
2019-05-02T03:20:22.809Z,30.15
2019-05-02T03:22:57.585Z,27.22
2019-05-02T03:25:49.215Z,26.93
2019-05-02T03:28:01.347Z,26.17
2019-05-02T03:30:37.177Z,25.48
2019-05-02T03:33:11.334Z,24.10
2019-05-02T03:35:48.177Z,29.07
2019-05-02T03:38:13.098Z,23.62
2019-05-02T03:40:52.187Z,26.25
2019-05-02T03:43:25.518Z,24.27
2019-05-02T03:46:20.433Z,24.35
2019-05-02T03:48:48.596Z,23.25
2019-05-02T03:51:25.064Z,26.93
2019-05-02T03:54:05.634Z,27.95
2019-05-02T03:56:26.736Z,25.65
2019-05-02T03:59:01.494Z,30.80
2019-05-02T04:01:38.662Z,31.05
2019-05-02T04:04:05.619Z,30.95
2019-05-02T04:06:36.274Z,31.10
2019-05-02T04:09:08.197Z,31.17
2019-05-02T04:11:40.732Z,30.90
2019-05-02T04:14:17.524Z,29.00
2019-05-02T04:16:42.140Z,29.02
2019-05-02T04:19:14.335Z,32.25
2019-05-02T04:21:45.393Z,30.65
2019-05-02T04:24:16.376Z,32.00
2019-05-02T04:26:56.628Z,31.52
2019-05-02T04:29:31.281Z,28.50
2019-05-02T04:32:04.387Z,34.60
2019-05-02T04:34:30.700Z,27.93
2019-05-02T04:37:03.991Z,28.67
2019-05-02T04:39:34.810Z,29.55
2019-05-02T04:42:13.171Z,31.12
2019-05-02T04:44:59.787Z,31.30
2019-05-02T04:47:17.597Z,33.08
2019-05-02T04:49:44.176Z,29.98
2019-05-02T04:52:17.146Z,30.82
2019-05-02T04:54:49.009Z,30.90
2019-05-02T04:57:29.321Z,29.12
2019-05-02T05:00:06.338Z,30.43
2019-05-02T05:02:34.299Z,32.65
2019-05-02T05:05:00.873Z,33.42
2019-05-02T05:07:41.024Z,35.15
2019-05-02T05:10:03.601Z,33.08
2019-05-02T05:12:38.005Z,32.70
2019-05-02T05:15:07.908Z,32.38
2019-05-02T05:17:38.174Z,33.35
2019-05-02T05:20:13.687Z,31.68
2019-05-02T05:22:44.177Z,36.95
2019-05-02T05:25:21.213Z,32.83
2019-05-02T05:27:52.566Z,40.45
2019-05-02T05:30:21.084Z,34.63
2019-05-02T05:32:51.227Z,31.20
2019-05-02T05:35:21.568Z,33.92
2019-05-02T05:37:53.373Z,39.73
2019-05-02T05:40:30.420Z,39.92
2019-05-02T05:43:02.129Z,39.78
2019-05-02T05:45:30.519Z,36.55
2019-05-02T05:48:01.191Z,39.08
2019-05-02T05:50:32.171Z,33.67
2019-05-02T05:53:03.371Z,33.20
2019-05-02T05:55:33.549Z,37.67
2019-05-02T05:58:12.296Z,35.23
2019-05-02T06:00:37.967Z,31.33
2019-05-02T06:03:14.036Z,39.18
2019-05-02T06:05:40.985Z,33.53
2019-05-02T06:08:13.783Z,32.15
2019-05-02T06:10:43.885Z,36.98
2019-05-02T06:13:16.449Z,32.88
2019-05-02T06:15:46.621Z,37.80
2019-05-02T06:18:16.731Z,32.08
2019-05-02T06:20:47.083Z,38.02
2019-05-02T06:23:17.221Z,38.38
2019-05-02T06:25:50.438Z,35.55
2019-05-02T06:28:20.523Z,36.95
2019-05-02T06:30:50.762Z,36.45
2019-05-02T06:33:20.895Z,39.35
2019-05-02T06:35:51.834Z,35.43
2019-05-02T06:38:22.923Z,34.10
2019-05-02T06:40:53.173Z,33.23
2019-05-02T06:43:23.263Z,37.48
2019-05-02T06:45:53.470Z,35.83
2019-05-02T06:48:23.596Z,37.53
2019-05-02T06:50:53.731Z,37.67
2019-05-02T06:53:23.810Z,42.30
2019-05-02T06:55:55.098Z,42.43
2019-05-02T06:58:29.396Z,34.40
2019-05-02T07:01:01.733Z,40.80
2019-05-02T07:03:31.909Z,42.35
2019-05-02T07:06:02.800Z,38.98
2019-05-02T07:08:33.933Z,43.15
2019-05-02T07:11:04.154Z,36.58
2019-05-02T07:13:36.299Z,39.67
2019-05-02T07:16:16.215Z,40.85
2019-05-02T07:18:49.667Z,43.05
2019-05-02T07:21:23.407Z,38.15
2019-05-02T07:23:53.639Z,40.73
2019-05-02T07:26:23.678Z,43.05
2019-05-02T07:28:53.775Z,43.28
2019-05-02T07:31:23.898Z,43.30
2019-05-02T07:33:54.015Z,44.25
2019-05-02T07:36:24.136Z,41.90
2019-05-02T07:38:57.060Z,39.65
2019-05-02T07:41:28.933Z,44.23
2019-05-02T07:43:57.911Z,42.70
2019-05-02T07:46:28.079Z,42.67
2019-05-02T07:48:58.344Z,43.08
2019-05-02T07:51:28.617Z,44.10
2019-05-02T07:53:59.202Z,46.13
2019-05-02T07:56:29.375Z,47.67
2019-05-02T07:58:59.529Z,40.25
2019-05-02T08:01:29.691Z,44.05
2019-05-02T08:04:04.523Z,51.25
2019-05-02T08:06:35.501Z,51.45
2019-05-02T08:09:07.143Z,43.33
2019-05-02T08:11:38.513Z,43.58
2019-05-02T08:14:08.772Z,45.58
2019-05-02T08:16:38.966Z,45.17
2019-05-02T08:19:09.109Z,48.87
2019-05-02T08:21:39.268Z,42.08
2019-05-02T08:24:09.445Z,44.53
2019-05-02T08:26:58.309Z,41.88
2019-05-02T08:29:28.757Z,46.63
2019-05-02T08:32:01.075Z,44.13
2019-05-02T08:34:32.631Z,44.35
2019-05-02T08:37:04.919Z,42.67
2019-05-02T08:39:35.385Z,44.90
2019-05-02T08:42:06.353Z,41.37
2019-05-02T08:44:49.932Z,47.38
2019-05-02T08:47:18.692Z,41.95
2019-05-02T08:49:42.502Z,43.42
2019-05-02T08:52:12.538Z,45.88
2019-05-02T08:54:42.672Z,39.83
2019-05-02T08:57:12.904Z,46.23
2019-05-02T09:00:00.135Z,41.15
2019-05-02T09:02:41.236Z,46.42
2019-05-02T09:05:06.479Z,40.30
2019-05-02T09:07:38.988Z,46.55
2019-05-02T09:10:09.186Z,42.30
2019-05-02T09:12:45.410Z,47.27
2019-05-02T09:15:19.415Z,38.60
2019-05-02T09:17:54.814Z,43.00
2019-05-02T09:20:24.195Z,44.98
2019-05-02T09:22:56.090Z,43.25
2019-05-02T09:25:28.627Z,43.90
2019-05-02T09:28:02.010Z,40.95
2019-05-02T09:30:33.175Z,41.55
2019-05-02T09:33:06.458Z,41.15
2019-05-02T09:35:37.387Z,43.30
2019-05-02T09:38:16.238Z,42.45
2019-05-02T09:40:47.191Z,44.03
2019-05-02T09:43:19.046Z,42.70
2019-05-02T09:45:49.497Z,41.68
2019-05-02T09:48:22.743Z,41.88
2019-05-02T09:50:53.942Z,36.68
2019-05-02T09:53:25.444Z,39.67
2019-05-02T09:56:02.932Z,39.10
2019-05-02T09:58:43.193Z,38.28
2019-05-02T10:01:31.981Z,46.02
2019-05-02T10:04:05.657Z,46.30
2019-05-02T10:06:42.924Z,41.45
2019-05-02T10:09:18.637Z,39.40
2019-05-02T10:11:52.734Z,40.10
2019-05-02T10:14:24.760Z,38.35
2019-05-02T10:17:05.111Z,41.28
2019-05-02T10:19:32.529Z,35.83
2019-05-02T10:22:12.254Z,40.30
2019-05-02T10:24:57.219Z,37.85
2019-05-02T10:27:27.439Z,36.25
2019-05-02T10:30:08.459Z,37.17
2019-05-02T10:32:37.017Z,35.90
2019-05-02T10:35:08.571Z,36.05
2019-05-02T10:37:39.669Z,34.15
2019-05-02T10:40:15.472Z,42.53
2019-05-02T10:42:42.389Z,36.77
2019-05-02T10:45:16.771Z,35.75
2019-05-02T10:47:46.577Z,32.20
2019-05-02T10:50:22.336Z,36.42
2019-05-02T10:52:52.780Z,42.65
2019-05-02T10:55:24.253Z,37.45
2019-05-02T10:57:54.645Z,42.27
2019-05-02T11:00:29.658Z,35.52
2019-05-02T11:03:12.197Z,41.15
2019-05-02T11:05:44.478Z,39.98
2019-05-02T11:08:14.695Z,41.18
2019-05-02T11:10:45.942Z,38.83
2019-05-02T11:13:37.007Z,39.27
2019-05-02T11:16:35.575Z,40.10
2019-05-02T11:19:24.863Z,38.53
2019-05-02T11:21:59.017Z,41.90
2019-05-02T11:24:27.917Z,38.63
2019-05-02T11:26:58.099Z,39.45
2019-05-02T11:29:28.271Z,39.23
2019-05-02T11:31:58.401Z,38.90
2019-05-02T11:34:28.579Z,37.98
2019-05-02T11:36:59.151Z,37.42
2019-05-02T11:39:40.686Z,40.88
2019-05-02T11:42:04.436Z,38.90
2019-05-02T11:44:34.710Z,42.03
2019-05-02T11:47:04.821Z,37.20
2019-05-02T11:49:34.970Z,42.53
2019-05-02T11:52:05.263Z,37.67
2019-05-02T11:54:39.165Z,43.38
2019-05-02T11:57:07.283Z,42.20
2019-05-02T11:59:37.451Z,39.13
2019-05-02T12:02:25.397Z,39.73
2019-05-02T12:04:56.028Z,39.30
2019-05-02T12:07:26.153Z,39.08
2019-05-02T12:09:57.188Z,39.58
2019-05-02T12:12:34.267Z,41.50
2019-05-02T12:14:59.367Z,38.53
2019-05-02T12:17:29.527Z,36.15
2019-05-02T12:20:05.698Z,43.95
2019-05-02T12:22:42.453Z,36.28
2019-05-02T12:25:25.435Z,39.53
2019-05-02T12:28:11.979Z,41.65
2019-05-02T12:30:52.840Z,38.17
2019-05-02T12:33:42.989Z,39.53
2019-05-02T12:36:16.871Z,41.48
2019-05-02T12:38:52.963Z,39.98
2019-05-02T12:41:29.587Z,35.95
2019-05-02T12:44:11.751Z,37.28
2019-05-02T12:46:45.481Z,41.65
2019-05-02T12:49:25.307Z,37.67
2019-05-02T12:52:01.897Z,35.30
2019-05-02T12:54:34.964Z,38.98
2019-05-02T12:57:12.515Z,48.87
2019-05-02T12:59:44.119Z,39.27
2019-05-02T13:02:27.029Z,34.48
2019-05-02T13:04:57.433Z,40.78
2019-05-02T13:07:31.738Z,42.70
2019-05-02T13:10:22.009Z,40.50
2019-05-02T13:13:02.808Z,42.80
2019-05-02T13:15:38.194Z,39.67
2019-05-02T13:18:12.509Z,40.95
2019-05-02T13:20:48.949Z,41.30
2019-05-02T13:23:40.087Z,45.60
2019-05-02T13:26:21.795Z,45.65
2019-05-02T13:28:52.690Z,42.58
2019-05-02T13:31:49.565Z,42.33
2019-05-02T13:34:54.089Z,42.88
2019-05-02T13:37:44.149Z,44.65
2019-05-02T13:40:29.236Z,49.77
2019-05-02T13:43:05.410Z,41.70
2019-05-02T13:46:07.600Z,44.33
2019-05-02T13:48:37.776Z,42.60
2019-05-02T13:51:07.957Z,45.03
2019-05-02T13:56:52.771Z,47.15
2019-05-02T13:59:23.822Z,43.98
2019-05-02T14:01:55.932Z,45.05
2019-05-02T14:04:26.317Z,56.58
2019-05-02T14:07:00.038Z,56.13
2019-05-02T14:09:58.330Z,65.70
2019-05-02T14:12:47.226Z,57.27
2019-05-02T14:15:22.133Z,57.48
2019-05-02T14:17:54.286Z,62.60
2019-05-02T14:20:25.631Z,58.23
2019-05-02T14:22:56.040Z,56.92
2019-05-02T14:25:35.084Z,52.62
2019-05-02T14:28:15.899Z,54.90
2019-05-02T14:30:54.519Z,54.50
2019-05-02T14:33:27.109Z,57.65
2019-05-02T14:35:57.657Z,57.83
2019-05-02T14:38:29.042Z,61.35
2019-05-02T14:41:12.445Z,56.80
2019-05-02T14:43:56.484Z,55.23
2019-05-02T14:46:37.569Z,63.25
2019-05-02T14:49:04.979Z,58.95
2019-05-02T14:51:36.777Z,63.25
2019-05-02T14:54:08.664Z,64.92
2019-05-02T14:57:11.779Z,58.42
2019-05-02T14:59:42.870Z,59.03
2019-05-02T15:02:39.230Z,55.75
2019-05-02T15:05:09.638Z,62.23
2019-05-02T15:07:39.913Z,61.30
2019-05-02T15:10:12.513Z,62.73
2019-05-02T15:12:51.707Z,60.35
2019-05-02T15:15:23.095Z,66.53
2019-05-02T15:17:53.555Z,59.60
2019-05-02T15:20:36.552Z,60.60
2019-05-02T15:22:56.715Z,59.18
2019-05-02T15:25:28.429Z,54.15
2019-05-02T15:28:02.022Z,61.35
2019-05-02T15:30:30.997Z,55.63
2019-05-02T15:33:12.563Z,62.15
2019-05-02T15:36:03.189Z,58.15
2019-05-02T15:38:37.161Z,59.25
2019-05-02T15:41:09.505Z,63.73
2019-05-02T15:43:39.367Z,59.65
2019-05-02T15:46:09.678Z,58.55
2019-05-02T15:48:42.169Z,56.30
2019-05-02T15:51:15.344Z,59.45
2019-05-02T15:54:08.091Z,59.03
2019-05-02T15:56:52.264Z,56.73
2019-05-02T15:59:37.720Z,54.40
2019-05-02T16:02:17.563Z,56.25
2019-05-02T16:04:46.220Z,50.05
2019-05-02T16:07:20.084Z,54.35
2019-05-02T16:09:51.521Z,49.25
2019-05-02T16:12:22.374Z,53.28
2019-05-02T16:14:52.811Z,52.90
2019-05-02T16:17:29.531Z,52.35
2019-05-02T16:20:10.389Z,52.20
2019-05-02T16:22:46.320Z,55.25
2019-05-02T16:25:12.208Z,55.70
2019-05-02T16:27:47.977Z,56.05
2019-05-02T16:30:22.363Z,57.25
2019-05-02T16:33:02.827Z,48.15
2019-05-02T16:35:34.570Z,52.43
2019-05-02T16:38:04.964Z,47.35
2019-05-02T16:40:35.338Z,51.35
2019-05-02T16:43:12.159Z,50.15
2019-05-02T16:45:43.969Z,52.60
2019-05-02T16:48:17.241Z,55.30
2019-05-02T16:50:48.415Z,54.33
2019-05-02T16:53:22.654Z,49.90
2019-05-02T16:55:51.835Z,53.02
2019-05-02T16:58:23.305Z,46.45
2019-05-02T17:00:55.118Z,44.60
2019-05-02T17:03:26.601Z,50.60
2019-05-02T17:05:57.352Z,46.13
2019-05-02T17:08:58.503Z,51.30
2019-05-02T17:11:35.944Z,47.35
2019-05-02T17:14:11.598Z,43.95
2019-05-02T17:16:38.740Z,46.28
2019-05-02T17:19:09.168Z,48.83
2019-05-02T17:21:53.116Z,47.27
2019-05-02T17:24:17.310Z,45.45
2019-05-02T17:26:47.286Z,47.67
2019-05-02T17:29:21.456Z,39.67
2019-05-02T17:31:50.099Z,49.33
2019-05-02T17:34:30.067Z,42.58
2019-05-02T17:36:59.098Z,52.43
2019-05-02T17:39:30.528Z,48.68
2019-05-02T17:42:02.766Z,45.90
2019-05-02T17:44:35.216Z,48.55
2019-05-02T17:47:06.916Z,48.25
2019-05-02T17:49:39.254Z,43.95
2019-05-02T17:52:26.033Z,49.00
2019-05-02T17:54:52.843Z,46.15
2019-05-02T17:57:28.559Z,49.27
2019-05-02T17:59:58.279Z,42.98
2019-05-02T18:02:34.089Z,56.40
2019-05-02T18:05:05.588Z,48.92
2019-05-02T18:07:36.282Z,54.05
2019-05-02T18:10:14.300Z,53.25
2019-05-02T18:12:39.492Z,48.58
2019-05-02T18:15:13.411Z,50.15
2019-05-02T18:17:46.041Z,52.80
2019-05-02T18:20:16.092Z,52.50
2019-05-02T18:22:48.921Z,52.55
2019-05-02T18:25:21.638Z,51.92
2019-05-02T18:27:51.841Z,53.73
2019-05-02T18:30:26.866Z,51.55
2019-05-02T18:32:57.735Z,54.55
2019-05-02T18:35:43.032Z,51.48
2019-05-02T18:38:10.583Z,57.30
2019-05-02T18:40:42.562Z,56.53
2019-05-02T18:43:14.110Z,55.33
2019-05-02T18:45:46.503Z,27.85
2019-05-02T18:48:21.784Z,12.23
2019-05-02T18:50:52.673Z,7.55
2019-05-02T18:53:26.996Z,12.15
2019-05-02T18:55:56.843Z,8.38
2019-05-02T18:58:31.910Z,10.38
2019-05-02T19:01:03.529Z,10.48
2019-05-02T19:03:37.041Z,8.75
2019-05-02T19:06:07.834Z,16.27
2019-05-02T19:08:46.766Z,14.78
2019-05-02T19:11:17.571Z,13.75
2019-05-02T19:13:52.718Z,12.90
2019-05-02T19:16:28.569Z,15.48
2019-05-02T19:18:58.325Z,17.37
2019-05-02T19:21:36.763Z,10.65
2019-05-02T19:24:04.914Z,11.70
2019-05-02T19:26:35.567Z,11.43
2019-05-02T19:29:14.101Z,16.93
2019-05-02T19:31:52.322Z,25.02
2019-05-02T19:34:26.633Z,15.43
2019-05-02T19:36:57.815Z,13.85
2019-05-02T19:39:29.647Z,10.78
2019-05-02T19:42:01.736Z,22.50
2019-05-02T19:44:37.458Z,14.13
2019-05-02T19:47:12.526Z,14.83
2019-05-02T19:49:42.381Z,14.73
2019-05-02T19:52:12.842Z,18.02
2019-05-02T19:54:43.786Z,15.13
2019-05-02T19:57:17.144Z,12.45
2019-05-02T19:59:47.579Z,13.22
2019-05-02T20:02:17.952Z,12.73
2019-05-02T20:04:48.515Z,16.20
2019-05-02T20:07:18.966Z,19.70
2019-05-02T20:09:49.595Z,14.35
2019-05-02T20:12:21.888Z,16.85
2019-05-02T20:14:52.135Z,17.27
2019-05-02T20:17:24.052Z,12.33
2019-05-02T20:19:57.869Z,12.33
2019-05-02T20:22:31.642Z,10.98
2019-05-02T20:25:04.040Z,8.70
2019-05-02T20:27:37.615Z,10.25
2019-05-02T20:30:08.493Z,10.13
2019-05-02T20:32:39.065Z,8.08
2019-05-02T20:35:13.572Z,9.33
2019-05-02T20:37:44.048Z,8.73
2019-05-02T20:40:31.687Z,11.22
2019-05-02T20:43:02.622Z,6.90
2019-05-02T20:45:35.427Z,9.83
2019-05-02T20:48:06.130Z,3.70
2019-05-02T20:50:44.402Z,4.15
2019-05-02T20:53:14.956Z,9.33
2019-05-02T20:55:45.576Z,8.58
2019-05-02T20:58:15.982Z,8.05
2019-05-02T21:00:46.812Z,6.53
2019-05-02T21:03:17.538Z,6.10
2019-05-02T21:06:13.031Z,7.40
2019-05-02T21:08:56.298Z,4.62
2019-05-02T21:11:27.267Z,3.98
2019-05-02T21:13:57.723Z,7.58
2019-05-02T21:16:28.578Z,3.67
2019-05-02T21:18:59.142Z,3.30
2019-05-02T21:21:29.962Z,2.00
2019-05-02T21:24:02.192Z,5.17
2019-05-02T21:26:32.961Z,2.02
2019-05-02T21:29:07.713Z,5.47
2019-05-02T21:31:37.971Z,4.37
2019-05-02T21:34:08.091Z,1.80
2019-05-02T21:36:38.460Z,6.65
2019-05-02T21:39:12.180Z,1.65
2019-05-02T21:41:43.473Z,6.28
2019-05-02T21:44:16.723Z,5.95
2019-05-02T21:46:47.032Z,4.35
2019-05-02T21:49:43.428Z,4.00
2019-05-02T21:52:32.861Z,2.77
2019-05-02T21:55:14.330Z,4.40
2019-05-02T21:57:44.658Z,3.67
2019-05-02T22:00:42.180Z,7.25
2019-05-02T22:03:12.750Z,4.83
2019-05-02T22:05:43.262Z,4.40
2019-05-02T22:08:13.809Z,4.28
2019-05-02T22:10:47.283Z,6.37
2019-05-02T22:13:19.271Z,6.00
2019-05-02T22:15:51.614Z,4.87
2019-05-02T22:18:24.474Z,6.37
2019-05-02T22:20:56.585Z,6.65
2019-05-02T22:23:27.184Z,7.75
2019-05-02T22:25:59.599Z,4.80
2019-05-02T22:28:29.907Z,7.37
2019-05-02T22:31:06.951Z,7.37
2019-05-02T22:33:37.603Z,7.05
2019-05-02T22:36:12.384Z,7.67
2019-05-02T22:38:54.355Z,5.10
2019-05-02T22:41:24.861Z,5.15
2019-05-02T22:43:55.285Z,10.48
2019-05-02T22:46:45.413Z,13.13
2019-05-02T22:49:16.423Z,6.20
2019-05-02T22:51:46.938Z,8.65
2019-05-02T22:54:26.785Z,8.00
2019-05-02T22:56:49.553Z,2.37
2019-05-02T22:59:23.716Z,6.58
2019-05-02T23:01:52.879Z,3.50
2019-05-02T23:04:23.560Z,7.90
2019-05-02T23:06:54.948Z,4.92
2019-05-02T23:09:25.380Z,8.68
2019-05-02T23:11:55.642Z,8.48
2019-05-02T23:14:28.203Z,5.45
2019-05-02T23:16:58.349Z,8.18
2019-05-02T23:19:28.483Z,5.55
2019-05-02T23:21:59.033Z,6.92
2019-05-02T23:24:44.296Z,6.58
2019-05-02T23:27:23.903Z,5.95
2019-05-02T23:29:55.353Z,5.12
2019-05-02T23:32:26.861Z,5.40
2019-05-02T23:34:57.090Z,8.23
2019-05-02T23:37:27.402Z,9.63
2019-05-02T23:39:57.841Z,10.68
2019-05-02T23:42:28.553Z,9.35
2019-05-02T23:44:59.799Z,8.68
2019-05-02T23:47:30.081Z,9.55
2019-05-02T23:50:00.425Z,7.90
2019-05-02T23:52:31.598Z,6.92
2019-05-02T23:55:03.112Z,8.88
2019-05-02T23:57:34.411Z,11.95
